Terminal Aerodrome Forecast
Issued by NWS

Home | Current Version | Previous Version | Text Only | Print | Product List | Glossary On
Versions: 1 2 3 4 5 6 7 8 9 10 11 12 13 14 15 16 17 18
000
FTUS41 KGYX 210907 AAA
TAFAUG
TAF AMD
KAUG 210907Z 2109/2206 18006KT P6SM BKN050
     FM211300 19004KT 4SM BR OVC005
     FM211800 17006KT 6SM BR OVC015
     FM220300 VRB03KT 2SM BR OVC007=

USA.gov is the U.S. government's official web portal to all federal, state and local government web resources and services.